createdAt,value
2023-04-15T00:00:14.348Z,982.21
2023-04-15T00:01:17.361Z,982.15
2023-04-15T00:02:19.257Z,982.14
2023-04-15T00:03:19.869Z,982.15
2023-04-15T00:04:21.399Z,982.17
2023-04-15T00:05:23.012Z,982.12
2023-04-15T00:06:24.773Z,982.12
2023-04-15T00:07:26.495Z,982.12
2023-04-15T00:08:28.215Z,982.06
2023-04-15T00:09:29.950Z,982.07
2023-04-15T00:10:31.685Z,982.09
2023-04-15T00:11:33.407Z,982.07
2023-04-15T00:12:35.164Z,982.04
2023-04-15T00:13:36.888Z,982.06
2023-04-15T00:14:38.620Z,982.02
2023-04-15T00:15:40.330Z,982.06
2023-04-15T00:16:42.136Z,982
2023-04-15T00:17:43.891Z,982.03
2023-04-15T00:18:45.558Z,982.03
2023-04-15T00:19:47.503Z,982.06
2023-04-15T00:20:49.012Z,982.01
2023-04-15T00:21:50.739Z,982.04
2023-04-15T00:22:52.484Z,982.01
2023-04-15T00:23:54.228Z,982.01
2023-04-15T00:24:55.977Z,982.03
2023-04-15T00:25:57.685Z,981.98
2023-04-15T00:26:59.416Z,981.98
2023-04-15T00:28:01.184Z,981.97
2023-04-15T00:29:02.870Z,981.97
2023-04-15T00:30:04.613Z,982.02
2023-04-15T00:31:06.482Z,981.99
2023-04-15T00:32:08.112Z,982.01
2023-04-15T00:33:09.845Z,982
2023-04-15T00:34:11.542Z,981.97
2023-04-15T00:35:13.304Z,982
2023-04-15T00:36:15.020Z,981.98
2023-04-15T00:37:16.752Z,982
2023-04-15T00:38:18.516Z,981.99
2023-04-15T00:39:20.221Z,982.01
2023-04-15T00:40:21.974Z,982
2023-04-15T00:41:23.697Z,982.04
2023-04-15T00:42:25.433Z,982.05
2023-04-15T00:43:27.152Z,982
2023-04-15T00:44:28.923Z,982.03
2023-04-15T00:45:30.664Z,982
2023-04-15T00:46:32.367Z,982.03
2023-04-15T00:47:34.165Z,981.99
2023-04-15T00:48:35.844Z,981.98
2023-04-15T00:49:37.582Z,982.03
2023-04-15T00:50:39.311Z,982.02
2023-04-15T00:51:41.025Z,982
2023-04-15T00:52:42.797Z,981.98
2023-04-15T00:53:44.543Z,982.03
2023-04-15T00:54:46.230Z,982.02
2023-04-15T00:56:08.751Z,982.02
2023-04-15T00:57:10.510Z,982.01
2023-04-15T00:58:12.263Z,982.04
2023-04-15T00:59:13.976Z,981.97
2023-04-15T01:00:15.680Z,981.94
2023-04-15T01:01:17.446Z,981.92
2023-04-15T01:02:19.247Z,981.97
2023-04-15T01:03:21.031Z,981.97
2023-04-15T01:04:22.853Z,981.99
2023-04-15T01:05:24.339Z,981.97
2023-04-15T01:06:26.075Z,981.99
2023-04-15T01:07:27.818Z,981.98
2023-04-15T01:08:29.571Z,981.96
2023-04-15T01:09:31.316Z,981.95
2023-04-15T01:10:33.015Z,981.95
2023-04-15T01:11:34.765Z,981.96
2023-04-15T01:12:36.479Z,981.95
2023-04-15T01:13:38.270Z,981.9
2023-04-15T01:14:39.986Z,981.89
2023-04-15T01:15:41.727Z,981.87
2023-04-15T01:16:43.454Z,981.87
2023-04-15T01:17:45.228Z,981.92
2023-04-15T01:18:46.883Z,981.88
2023-04-15T01:19:48.633Z,981.87
2023-04-15T01:20:50.344Z,981.91
2023-04-15T01:21:52.170Z,981.89
2023-04-15T01:22:53.818Z,981.9
2023-04-15T01:23:55.570Z,981.88
2023-04-15T01:24:57.290Z,981.88
2023-04-15T01:25:59.052Z,981.85
2023-04-15T01:27:00.796Z,981.87
2023-04-15T01:28:02.495Z,981.87
2023-04-15T01:29:04.252Z,981.81
2023-04-15T01:30:06.005Z,981.83
2023-04-15T01:31:07.838Z,981.87
2023-04-15T01:32:09.428Z,981.85
2023-04-15T01:33:11.188Z,981.87
2023-04-15T01:34:12.895Z,981.84
2023-04-15T01:35:14.652Z,981.85
2023-04-15T01:36:16.369Z,981.84
2023-04-15T01:37:18.089Z,981.82
2023-04-15T01:38:19.836Z,981.86
2023-04-15T01:39:21.586Z,981.9
2023-04-15T01:40:23.321Z,981.9
2023-04-15T01:41:25.043Z,981.89
2023-04-15T01:42:26.772Z,981.89
2023-04-15T01:43:28.542Z,981.92
2023-04-15T01:44:30.237Z,981.89
2023-04-15T01:45:31.981Z,981.91
2023-04-15T01:46:33.734Z,981.87
2023-04-15T01:47:35.497Z,981.96
2023-04-15T01:48:37.219Z,981.9
2023-04-15T01:49:38.922Z,981.92
2023-04-15T01:50:40.677Z,981.94
2023-04-15T01:51:42.389Z,981.97
2023-04-15T01:52:44.131Z,981.93
2023-04-15T01:53:45.850Z,981.99
2023-04-15T01:54:47.568Z,981.97
2023-04-15T01:55:49.345Z,982.04
2023-04-15T01:56:51.082Z,982.02
2023-04-15T01:57:52.809Z,981.97
2023-04-15T01:58:54.524Z,982
2023-04-15T01:59:56.276Z,981.96
2023-04-15T02:00:58.047Z,981.96
2023-04-15T02:01:59.872Z,981.97
2023-04-15T02:03:01.559Z,981.96
2023-04-15T02:04:03.309Z,981.99
2023-04-15T02:05:04.947Z,981.98
2023-04-15T02:06:06.698Z,981.97
2023-04-15T02:07:08.417Z,982.03
2023-04-15T02:08:10.344Z,981.97
2023-04-15T02:09:11.913Z,981.98
2023-04-15T02:10:13.639Z,982
2023-04-15T02:11:15.356Z,981.97
2023-04-15T02:12:17.071Z,981.96
2023-04-15T02:13:18.806Z,981.97
2023-04-15T02:14:20.666Z,981.98
2023-04-15T02:15:22.251Z,981.96
2023-04-15T02:16:24.030Z,981.99
2023-04-15T02:17:25.811Z,981.96
2023-04-15T02:18:27.487Z,981.92
2023-04-15T02:19:29.220Z,981.99
2023-04-15T02:20:30.937Z,982.03
2023-04-15T02:21:32.672Z,981.98
2023-04-15T02:22:34.379Z,982
2023-04-15T02:23:36.122Z,981.97
2023-04-15T02:24:37.851Z,982
2023-04-15T02:25:39.585Z,981.96
2023-04-15T02:26:41.321Z,981.97
2023-04-15T02:27:43.091Z,981.97
2023-04-15T02:28:44.797Z,982.01
2023-04-15T02:29:46.532Z,982
2023-04-15T02:30:48.290Z,981.93
2023-04-15T02:31:50.044Z,982.02
2023-04-15T02:32:51.873Z,981.91
2023-04-15T02:33:53.482Z,981.94
2023-04-15T02:34:55.231Z,982.01
2023-04-15T02:35:56.967Z,981.95
2023-04-15T02:36:58.677Z,981.95
2023-04-15T02:38:00.447Z,981.95
2023-04-15T02:39:02.468Z,982.01
2023-04-15T02:40:03.878Z,982
2023-04-15T02:41:05.594Z,982
2023-04-15T02:42:07.368Z,981.99
2023-04-15T02:43:09.089Z,981.98
2023-04-15T02:44:11.485Z,982.01
2023-04-15T02:45:12.576Z,981.96
2023-04-15T02:46:14.351Z,981.96
2023-04-15T02:47:16.025Z,982.01
2023-04-15T02:48:17.740Z,982.03
2023-04-15T02:49:19.496Z,981.99
2023-04-15T02:50:21.210Z,982.05
2023-04-15T02:51:23.135Z,982.05
2023-04-15T02:52:24.689Z,982.01
2023-04-15T02:53:26.419Z,982.01
2023-04-15T02:54:28.142Z,982.06
2023-04-15T02:55:29.866Z,982.07
2023-04-15T02:56:31.622Z,982.07
2023-04-15T02:57:33.351Z,982.02
2023-04-15T02:58:35.059Z,982.08
2023-04-15T02:59:36.794Z,982.07
2023-04-15T03:00:38.566Z,982.07
2023-04-15T03:01:40.293Z,982.06
2023-04-15T03:02:42.460Z,982.07
2023-04-15T03:03:43.797Z,982.07
2023-04-15T03:04:45.482Z,982.06
2023-04-15T03:05:47.184Z,982.12
2023-04-15T03:06:48.916Z,982.12
2023-04-15T03:07:50.679Z,982.13
2023-04-15T03:08:52.413Z,982.14
2023-04-15T03:09:54.109Z,982.15
2023-04-15T03:10:55.962Z,982.12
2023-04-15T03:11:57.610Z,982.12
2023-04-15T03:12:59.353Z,982.16
2023-04-15T03:14:01.117Z,982.12
2023-04-15T03:15:02.801Z,982.09
2023-04-15T03:16:04.597Z,982.11
2023-04-15T03:17:06.282Z,982.11
2023-04-15T03:18:08.010Z,982.12
2023-04-15T03:19:09.718Z,982.09
2023-04-15T03:20:11.540Z,982.12
2023-04-15T03:21:13.181Z,982.15
2023-04-15T03:22:14.963Z,982.12
2023-04-15T03:23:16.663Z,982.08
2023-04-15T03:24:18.423Z,982.11
2023-04-15T03:25:20.145Z,982.12
2023-04-15T03:26:21.866Z,982.09
2023-04-15T03:27:23.603Z,982.1
2023-04-15T03:28:25.343Z,982.1
2023-04-15T03:29:27.072Z,982.12
2023-04-15T03:30:28.800Z,982.1
2023-04-15T03:31:30.628Z,982.07
2023-04-15T03:32:32.345Z,982.09
2023-04-15T03:33:33.992Z,982.11
2023-04-15T03:34:35.715Z,982.12
2023-04-15T03:35:37.477Z,982.16
2023-04-15T03:36:39.198Z,982.13
2023-04-15T03:37:40.956Z,982.14
2023-04-15T03:38:42.800Z,982.12
2023-04-15T03:39:44.434Z,982.12
2023-04-15T03:40:46.256Z,982.11
2023-04-15T03:41:47.870Z,982.12
2023-04-15T03:42:49.630Z,982.11
2023-04-15T03:43:51.338Z,982.12
2023-04-15T03:44:53.125Z,982.05
2023-04-15T03:45:54.812Z,982.09
2023-04-15T03:46:56.590Z,982.1
2023-04-15T03:48:07.363Z,982.07
2023-04-15T03:49:00.597Z,982.09
2023-04-15T03:50:01.783Z,982.04
2023-04-15T03:51:03.513Z,982.05
2023-04-15T03:52:05.215Z,982.07
2023-04-15T03:53:07.018Z,982.05
2023-04-15T03:54:08.680Z,982.1
2023-04-15T03:55:10.537Z,982.08
2023-04-15T03:56:12.153Z,982.03
2023-04-15T03:57:13.908Z,982.05
2023-04-15T03:58:15.612Z,982.07
2023-04-15T03:59:17.346Z,982.08
2023-04-15T04:00:19.082Z,982.08
2023-04-15T04:01:20.833Z,982.06
2023-04-15T04:02:22.746Z,982.07
2023-04-15T04:03:24.588Z,982.02
2023-04-15T04:04:26.152Z,982.09
2023-04-15T04:05:27.752Z,982.07
2023-04-15T04:06:29.486Z,982.13
2023-04-15T04:07:31.246Z,982.12
2023-04-15T04:08:32.948Z,982.07
2023-04-15T04:09:34.667Z,982.1
2023-04-15T04:10:36.413Z,982.08
2023-04-15T04:11:38.190Z,982.1
2023-04-15T04:12:39.879Z,982.11
2023-04-15T04:13:41.610Z,982.1
2023-04-15T04:14:43.427Z,982.09
2023-04-15T04:15:45.129Z,982.11
2023-04-15T04:16:46.845Z,982.07
2023-04-15T04:17:48.698Z,982.13
2023-04-15T04:18:50.356Z,982.14
2023-04-15T04:19:52.025Z,982.16
2023-04-15T04:20:53.774Z,982.13
2023-04-15T04:21:55.480Z,982.07
2023-04-15T04:22:57.208Z,982.18
2023-04-15T04:23:59.117Z,982.14
2023-04-15T04:25:00.685Z,982.14
2023-04-15T04:26:02.419Z,982.16
2023-04-15T04:27:04.331Z,982.17
2023-04-15T04:28:05.919Z,982.16
2023-04-15T04:29:07.620Z,982.19
2023-04-15T04:30:09.360Z,982.17
2023-04-15T04:31:11.109Z,982.16
2023-04-15T04:32:12.877Z,982.15
2023-04-15T04:33:14.580Z,982.14
2023-04-15T04:34:16.379Z,982.16
2023-04-15T04:35:18.015Z,982.16
2023-04-15T04:36:19.740Z,982.16
2023-04-15T04:37:21.496Z,982.19
2023-04-15T04:38:23.245Z,982.09
2023-04-15T04:39:24.965Z,982.14
2023-04-15T04:40:26.712Z,982.16
2023-04-15T04:41:28.434Z,982.15
2023-04-15T04:42:30.158Z,982.22
2023-04-15T04:43:31.902Z,982.17
2023-04-15T04:44:33.610Z,982.2
2023-04-15T04:45:35.374Z,982.21
2023-04-15T04:46:37.063Z,982.22
2023-04-15T04:47:38.832Z,982.22
2023-04-15T04:48:40.554Z,982.23
2023-04-15T04:49:42.321Z,982.2
2023-04-15T04:50:44.020Z,982.24
2023-04-15T04:51:45.771Z,982.21
2023-04-15T04:52:47.488Z,982.22
2023-04-15T04:53:49.233Z,982.19
2023-04-15T04:54:50.972Z,982.15
2023-04-15T04:55:52.705Z,982.2
2023-04-15T04:56:54.440Z,982.15
2023-04-15T04:57:56.153Z,982.18
2023-04-15T04:58:57.935Z,982.16
2023-04-15T04:59:59.602Z,982.15
2023-04-15T05:01:01.432Z,982.17
2023-04-15T05:02:03.213Z,982.17
2023-04-15T05:03:04.998Z,982.19
2023-04-15T05:04:06.660Z,982.23
2023-04-15T05:05:08.310Z,982.22
2023-04-15T05:06:10.013Z,982.21
2023-04-15T05:07:11.752Z,982.23
2023-04-15T05:08:13.521Z,982.23
2023-04-15T05:09:15.227Z,982.3
2023-04-15T05:10:16.981Z,982.24
2023-04-15T05:11:18.682Z,982.27
2023-04-15T05:12:20.426Z,982.28
2023-04-15T05:13:22.175Z,982.29
2023-04-15T05:14:23.981Z,982.26
2023-04-15T05:15:25.741Z,982.31
2023-04-15T05:16:29.234Z,982.31
2023-04-15T05:17:34.459Z,982.32
2023-04-15T05:18:40.447Z,982.35
2023-04-15T05:19:42.920Z,982.35
2023-04-15T05:20:44.589Z,982.36
2023-04-15T05:21:46.287Z,982.36
2023-04-15T05:22:48.078Z,982.35
2023-04-15T05:23:49.777Z,982.36
2023-04-15T05:24:51.508Z,982.39
2023-04-15T05:25:53.240Z,982.33
2023-04-15T05:26:55.003Z,982.41
2023-04-15T05:27:56.690Z,982.45
2023-04-15T05:28:58.727Z,982.41
2023-04-15T05:30:00.188Z,982.43
2023-04-15T05:31:01.934Z,982.44
2023-04-15T05:32:03.628Z,982.45
2023-04-15T05:33:05.378Z,982.41
2023-04-15T05:34:07.099Z,982.45
2023-04-15T05:35:08.853Z,982.48
2023-04-15T05:36:10.608Z,982.49
2023-04-15T05:37:12.301Z,982.48
2023-04-15T05:38:14.057Z,982.56
2023-04-15T05:39:15.785Z,982.48
2023-04-15T05:40:17.540Z,982.52
2023-04-15T05:41:19.974Z,982.52
2023-04-15T05:42:20.985Z,982.5
2023-04-15T05:43:22.704Z,982.56
2023-04-15T05:44:24.465Z,982.48
2023-04-15T05:45:26.216Z,982.51
2023-04-15T05:46:27.921Z,982.51
2023-04-15T05:47:29.707Z,982.51
2023-04-15T05:48:31.369Z,982.48
2023-04-15T05:49:33.087Z,982.41
2023-04-15T05:50:34.828Z,982.47
2023-04-15T05:51:36.555Z,982.45
2023-04-15T05:52:38.339Z,982.48
2023-04-15T05:53:40.029Z,982.46
2023-04-15T05:54:41.776Z,982.53
2023-04-15T05:55:43.604Z,982.49
2023-04-15T05:56:45.238Z,982.55
2023-04-15T05:57:47.022Z,982.53
2023-04-15T05:58:48.706Z,982.56
2023-04-15T05:59:50.432Z,982.54
2023-04-15T06:00:52.187Z,982.53
2023-04-15T06:01:53.912Z,982.5
2023-04-15T06:02:55.707Z,982.51
2023-04-15T06:03:57.564Z,982.47
2023-04-15T06:04:59.139Z,982.45
2023-04-15T06:06:00.847Z,982.49
2023-04-15T06:07:02.582Z,982.47
2023-04-15T06:08:04.330Z,982.45
2023-04-15T06:09:06.092Z,982.46
2023-04-15T06:10:07.779Z,982.49
2023-04-15T06:11:09.521Z,982.48
2023-04-15T06:12:11.234Z,982.48
2023-04-15T06:13:13.052Z,982.46
2023-04-15T06:14:14.712Z,982.46
2023-04-15T06:15:16.430Z,982.49
2023-04-15T06:16:18.204Z,982.5
2023-04-15T06:17:19.938Z,982.54
2023-04-15T06:18:21.642Z,982.59
2023-04-15T06:19:23.372Z,982.55
2023-04-15T06:20:25.104Z,982.55
2023-04-15T06:21:26.885Z,982.57
2023-04-15T06:22:28.583Z,982.56
2023-04-15T06:23:30.299Z,982.57
2023-04-15T06:24:32.053Z,982.61
2023-04-15T06:25:33.784Z,982.57
2023-04-15T06:26:35.509Z,982.62
2023-04-15T06:27:37.278Z,982.58
2023-04-15T06:28:38.978Z,982.61
2023-04-15T06:29:40.709Z,982.56
2023-04-15T06:30:42.444Z,982.6
2023-04-15T06:31:44.251Z,982.54
2023-04-15T06:32:45.974Z,982.49
2023-04-15T06:33:47.641Z,982.56
2023-04-15T06:34:49.420Z,982.57
2023-04-15T06:35:51.109Z,982.57
2023-04-15T06:36:52.849Z,982.56
2023-04-15T06:37:54.575Z,982.57
2023-04-15T06:38:56.316Z,982.57
2023-04-15T06:39:58.045Z,982.63
2023-04-15T06:40:59.879Z,982.57
2023-04-15T06:42:01.548Z,982.57
2023-04-15T06:43:03.252Z,982.6
2023-04-15T06:44:05.190Z,982.6
2023-04-15T06:45:06.721Z,982.63
2023-04-15T06:46:08.527Z,982.64
2023-04-15T06:47:10.210Z,982.65
2023-04-15T06:48:11.930Z,982.72
2023-04-15T06:49:13.661Z,982.64
2023-04-15T06:50:15.419Z,982.68
2023-04-15T06:51:17.164Z,982.6
2023-04-15T06:52:18.902Z,982.61
2023-04-15T06:53:20.603Z,982.59
2023-04-15T06:54:22.321Z,982.61
2023-04-15T06:55:24.083Z,982.63
2023-04-15T06:56:25.835Z,982.51
2023-04-15T06:57:27.536Z,982.58
2023-04-15T06:58:29.325Z,982.57
2023-04-15T06:59:30.997Z,982.61
2023-04-15T07:00:32.745Z,982.62
2023-04-15T07:01:34.529Z,982.6
2023-04-15T07:02:36.350Z,982.65
2023-04-15T07:03:37.972Z,982.61
2023-04-15T07:04:39.689Z,982.61
2023-04-15T07:05:41.468Z,982.63
2023-04-15T07:06:43.146Z,982.66
2023-04-15T07:07:44.870Z,982.64
2023-04-15T07:08:46.648Z,982.64
2023-04-15T07:09:48.365Z,982.69
2023-04-15T07:10:50.071Z,982.67
2023-04-15T07:11:51.796Z,982.62
2023-04-15T07:12:53.530Z,982.66
2023-04-15T07:13:55.318Z,982.63
2023-04-15T07:14:56.995Z,982.63
2023-04-15T07:15:58.734Z,982.62
2023-04-15T07:17:00.527Z,982.56
2023-04-15T07:18:02.246Z,982.62
2023-04-15T07:19:04.279Z,982.61
2023-04-15T07:20:05.663Z,982.64
2023-04-15T07:21:07.398Z,982.65
2023-04-15T07:22:09.141Z,982.66
2023-04-15T07:23:10.869Z,982.61
2023-04-15T07:24:12.617Z,982.65
2023-04-15T07:25:15.730Z,982.64
2023-04-15T07:26:16.102Z,982.65
2023-04-15T07:27:17.810Z,982.64
2023-04-15T07:28:19.548Z,982.52
2023-04-15T07:29:21.371Z,982.61
2023-04-15T07:30:23.035Z,982.56
2023-04-15T07:31:24.755Z,982.52
2023-04-15T07:32:26.541Z,982.52
2023-04-15T07:33:28.289Z,982.56
2023-04-15T07:34:30.806Z,982.58
2023-04-15T07:35:31.684Z,982.55
2023-04-15T07:36:33.404Z,982.55
2023-04-15T07:37:35.182Z,982.64
2023-04-15T07:38:36.893Z,982.59
2023-04-15T07:39:38.647Z,982.61
2023-04-15T07:40:40.398Z,982.59
2023-04-15T07:41:42.119Z,982.57
2023-04-15T07:42:43.814Z,982.56
2023-04-15T07:43:45.552Z,982.58
2023-04-15T07:44:47.332Z,982.57
2023-04-15T07:45:49.276Z,982.6
2023-04-15T07:46:50.755Z,982.61
2023-04-15T07:47:52.612Z,982.62
2023-04-15T07:48:54.248Z,982.57
2023-04-15T07:49:55.998Z,982.55
2023-04-15T07:50:57.695Z,982.57
2023-04-15T07:51:59.432Z,982.57
2023-04-15T07:53:01.157Z,982.57
2023-04-15T07:54:02.901Z,982.61
2023-04-15T07:55:04.637Z,982.6
2023-04-15T07:56:06.350Z,982.56
2023-04-15T07:57:08.284Z,982.57
2023-04-15T07:58:09.827Z,982.54
2023-04-15T07:59:11.629Z,982.56
2023-04-15T08:00:13.308Z,982.56
2023-04-15T08:01:15.037Z,982.6
2023-04-15T08:02:16.980Z,982.61
2023-04-15T08:03:18.653Z,982.59
2023-04-15T08:04:20.363Z,982.63
2023-04-15T08:05:22.135Z,982.63
2023-04-15T08:06:23.703Z,982.63
2023-04-15T08:07:25.451Z,982.65
2023-04-15T08:08:27.211Z,982.65
2023-04-15T08:09:28.938Z,982.67
2023-04-15T08:10:30.630Z,982.65
2023-04-15T08:11:32.369Z,982.71
2023-04-15T08:12:34.117Z,982.7
2023-04-15T08:13:35.824Z,982.67
2023-04-15T08:14:37.573Z,982.75
2023-04-15T08:15:39.375Z,982.84
2023-04-15T08:16:41.046Z,982.87
2023-04-15T08:17:42.832Z,982.85
2023-04-15T08:18:44.548Z,982.86
2023-04-15T08:19:46.220Z,982.89
2023-04-15T08:20:47.967Z,982.9
2023-04-15T08:21:49.723Z,982.92
2023-04-15T08:22:51.479Z,982.89
2023-04-15T08:23:53.236Z,982.95
2023-04-15T08:24:54.895Z,982.92
2023-04-15T08:25:56.640Z,982.93
2023-04-15T08:26:58.415Z,982.95
2023-04-15T08:28:00.127Z,982.97
2023-04-15T08:29:02.378Z,982.98
2023-04-15T08:30:05.083Z,982.9
2023-04-15T08:31:05.476Z,982.94
2023-04-15T08:32:07.174Z,983.01
2023-04-15T08:33:08.847Z,983.02
2023-04-15T08:34:10.582Z,983.01
2023-04-15T08:35:12.279Z,983.04
2023-04-15T08:36:14.152Z,983.04
2023-04-15T08:37:15.784Z,983.04
2023-04-15T08:38:17.494Z,983
2023-04-15T08:39:19.253Z,983.01
2023-04-15T08:40:20.983Z,983.01
2023-04-15T08:41:22.677Z,983.01
2023-04-15T08:42:24.454Z,983
2023-04-15T08:43:26.131Z,983.03
2023-04-15T08:44:27.938Z,983
2023-04-15T08:45:29.632Z,983.07
2023-04-15T08:46:31.374Z,983.09
2023-04-15T08:47:32.994Z,983.08
2023-04-15T08:48:34.657Z,983.05
2023-04-15T08:49:36.433Z,983.08
2023-04-15T08:50:38.167Z,983.06
2023-04-15T08:51:39.860Z,983.07
2023-04-15T08:52:41.716Z,983.04
2023-04-15T08:53:43.338Z,983.08
2023-04-15T08:54:45.096Z,983.04
2023-04-15T08:55:46.800Z,983
2023-04-15T08:56:48.613Z,982.99
2023-04-15T08:57:50.221Z,983
2023-04-15T08:58:51.961Z,982.96
2023-04-15T08:59:53.711Z,982.96
2023-04-15T09:00:55.501Z,982.97
2023-04-15T09:01:57.206Z,982.94
2023-04-15T09:02:58.953Z,982.98
2023-04-15T09:04:00.655Z,982.91
2023-04-15T09:05:02.429Z,982.98
2023-04-15T09:06:04.119Z,982.97
2023-04-15T09:07:05.883Z,982.98
2023-04-15T09:08:07.632Z,983
2023-04-15T09:09:09.326Z,982.99
2023-04-15T09:10:11.077Z,983
2023-04-15T09:11:12.788Z,982.98
2023-04-15T09:12:14.505Z,982.99
2023-04-15T09:13:16.232Z,982.98
2023-04-15T09:14:17.967Z,982.99
2023-04-15T09:15:19.708Z,983.02
2023-04-15T09:16:21.467Z,982.97
2023-04-15T09:17:23.176Z,983.05
2023-04-15T09:18:24.893Z,983.01
2023-04-15T09:19:26.669Z,983.02
2023-04-15T09:20:28.362Z,983.01
2023-04-15T09:21:30.133Z,983.04
2023-04-15T09:22:31.844Z,983.11
2023-04-15T09:23:33.567Z,983.08
2023-04-15T09:24:35.314Z,983.08
2023-04-15T09:25:37.034Z,983.15
2023-04-15T09:26:38.832Z,983.08
2023-04-15T09:27:40.517Z,983.12
2023-04-15T09:28:42.257Z,983.09
2023-04-15T09:29:44.024Z,983.09
2023-04-15T09:30:45.772Z,983.08
2023-04-15T09:31:47.463Z,983.1
2023-04-15T09:32:49.193Z,983.08
2023-04-15T09:33:50.947Z,983.13
2023-04-15T09:34:52.682Z,983.09
2023-04-15T09:35:54.452Z,983.14
2023-04-15T09:36:56.175Z,983.13
2023-04-15T09:37:57.906Z,983.15
2023-04-15T09:38:59.632Z,983.1
2023-04-15T09:40:01.363Z,983.13
2023-04-15T09:41:03.090Z,983.15
2023-04-15T09:42:04.851Z,983.14
2023-04-15T09:43:06.600Z,983.13
2023-04-15T09:44:08.326Z,983.12
2023-04-15T09:45:10.004Z,983.18
2023-04-15T09:46:11.821Z,983.17
2023-04-15T09:47:13.550Z,983.26
2023-04-15T09:48:15.216Z,983.21
2023-04-15T09:49:16.987Z,983.22
2023-04-15T09:50:18.697Z,983.23
2023-04-15T09:51:20.515Z,983.2
2023-04-15T09:52:22.170Z,983.25
2023-04-15T09:53:23.907Z,983.3
2023-04-15T09:54:25.643Z,983.2
2023-04-15T09:55:27.379Z,983.25
2023-04-15T09:56:29.112Z,983.28
2023-04-15T09:57:30.839Z,983.27
2023-04-15T09:58:32.586Z,983.26
2023-04-15T09:59:34.334Z,983.25
2023-04-15T10:00:36.039Z,983.3
2023-04-15T10:01:38.147Z,983.31
2023-04-15T10:02:39.610Z,983.34
2023-04-15T10:03:41.444Z,983.29
2023-04-15T10:04:43.103Z,983.3
2023-04-15T10:05:44.891Z,983.28
2023-04-15T10:06:46.423Z,983.29
2023-04-15T10:07:50.223Z,983.33
2023-04-15T10:08:55.052Z,983.32
2023-04-15T10:09:56.772Z,983.32
2023-04-15T10:10:58.508Z,983.32
2023-04-15T10:12:00.265Z,983.36
2023-04-15T10:13:01.979Z,983.35
2023-04-15T10:14:04.144Z,983.27
2023-04-15T10:15:07.577Z,983.36
2023-04-15T10:16:12.374Z,983.29
2023-04-15T10:17:14.030Z,983.3
2023-04-15T10:18:15.916Z,983.32
2023-04-15T10:19:17.551Z,983.32
2023-04-15T10:20:19.274Z,983.35
2023-04-15T10:21:21.025Z,983.38
2023-04-15T10:22:22.714Z,983.35
2023-04-15T10:23:24.555Z,983.36
2023-04-15T10:24:26.271Z,983.35
2023-04-15T10:25:27.953Z,983.33
2023-04-15T10:26:29.643Z,983.33
2023-04-15T10:27:31.383Z,983.39
2023-04-15T10:28:33.124Z,983.42
2023-04-15T10:29:34.878Z,983.39
2023-04-15T10:30:36.597Z,983.41
2023-04-15T10:31:38.446Z,983.5
2023-04-15T10:32:40.231Z,983.54
2023-04-15T10:33:41.784Z,983.48
2023-04-15T10:34:43.617Z,983.54
2023-04-15T10:35:45.262Z,983.54
2023-04-15T10:36:47.041Z,983.54
2023-04-15T10:37:48.762Z,983.54
2023-04-15T10:38:50.525Z,983.5
2023-04-15T10:39:52.185Z,983.58
2023-04-15T10:40:53.952Z,983.6
2023-04-15T10:41:55.734Z,983.57
2023-04-15T10:42:57.390Z,983.61
2023-04-15T10:43:59.170Z,983.63
2023-04-15T10:45:00.895Z,983.64
2023-04-15T10:46:02.950Z,983.7
2023-04-15T10:47:04.320Z,983.63
2023-04-15T10:48:06.131Z,983.74
2023-04-15T10:49:07.804Z,983.76
2023-04-15T10:50:09.575Z,983.69
2023-04-15T10:51:11.320Z,983.67
2023-04-15T10:52:13.038Z,983.67
2023-04-15T10:53:14.774Z,983.67
2023-04-15T10:54:16.549Z,983.7
2023-04-15T10:55:18.321Z,983.66
2023-04-15T10:56:20.010Z,983.69
2023-04-15T10:57:21.738Z,983.7
2023-04-15T10:58:23.449Z,983.68
2023-04-15T10:59:25.181Z,983.64
2023-04-15T11:00:26.958Z,983.72
2023-04-15T11:01:28.665Z,983.68
2023-04-15T11:02:30.748Z,983.73
2023-04-15T11:03:32.241Z,983.77
2023-04-15T11:04:33.937Z,983.77
2023-04-15T11:05:35.615Z,983.73
2023-04-15T11:06:37.352Z,983.77
2023-04-15T11:07:39.136Z,983.72
2023-04-15T11:08:40.849Z,983.76
2023-04-15T11:09:42.505Z,983.72
2023-04-15T11:10:44.240Z,983.79
2023-04-15T11:11:46.448Z,983.77
2023-04-15T11:12:47.752Z,983.77
2023-04-15T11:13:49.470Z,983.79
2023-04-15T11:14:51.208Z,983.79
2023-04-15T11:15:52.921Z,983.82
2023-04-15T11:16:54.650Z,983.82
2023-04-15T11:17:56.561Z,983.82
2023-04-15T11:18:58.185Z,983.86
2023-04-15T11:19:59.981Z,983.84
2023-04-15T11:21:01.651Z,983.85
2023-04-15T11:22:03.378Z,983.83
2023-04-15T11:23:14.401Z,983.9
2023-04-15T11:24:06.953Z,983.87
2023-04-15T11:25:08.575Z,983.92
2023-04-15T11:26:10.271Z,983.93
2023-04-15T11:27:12.013Z,983.9
2023-04-15T11:28:13.788Z,983.91
2023-04-15T11:29:15.448Z,983.91
2023-04-15T11:30:17.220Z,983.95
2023-04-15T11:31:19.008Z,983.98
2023-04-15T11:32:20.682Z,983.99
2023-04-15T11:33:22.414Z,984
2023-04-15T11:34:24.275Z,983.96
2023-04-15T11:35:25.896Z,983.97
2023-04-15T11:36:27.646Z,984.04
2023-04-15T11:37:29.369Z,984.02
2023-04-15T11:38:31.133Z,983.97
2023-04-15T11:39:32.834Z,984.02
2023-04-15T11:40:34.547Z,983.96
2023-04-15T11:41:36.306Z,983.99
2023-04-15T11:42:48.762Z,984.02
2023-04-15T11:43:39.745Z,984.03
2023-04-15T11:44:41.531Z,984.08
2023-04-15T11:45:43.257Z,984.05
2023-04-15T11:46:45.622Z,984.04
2023-04-15T11:47:46.695Z,984.06
2023-04-15T11:48:48.486Z,984.02
2023-04-15T11:49:50.145Z,984.03
2023-04-15T11:50:51.916Z,984.02
2023-04-15T11:51:53.625Z,984.02
2023-04-15T11:52:55.406Z,984.06
2023-04-15T11:53:57.092Z,984.07
2023-04-15T11:54:58.832Z,984.11
2023-04-15T11:56:00.559Z,984.12
2023-04-15T11:57:02.322Z,984.14
2023-04-15T11:58:04.023Z,984.17
2023-04-15T11:59:05.739Z,984.17
2023-04-15T12:00:07.548Z,984.21
2023-04-15T12:01:09.235Z,984.18
2023-04-15T12:02:11.065Z,984.16
2023-04-15T12:03:13.027Z,984.22
2023-04-15T12:04:14.640Z,984.19
2023-04-15T12:05:16.342Z,984.24
2023-04-15T12:06:17.893Z,984.24
2023-04-15T12:07:19.678Z,984.28
2023-04-15T12:08:21.379Z,984.26
2023-04-15T12:09:23.094Z,984.31
2023-04-15T12:10:24.859Z,984.27
2023-04-15T12:11:26.566Z,984.26
2023-04-15T12:12:28.315Z,984.35
2023-04-15T12:13:30.069Z,984.34
2023-04-15T12:14:31.791Z,984.29
2023-04-15T12:15:34.051Z,984.35
2023-04-15T12:16:37.198Z,984.32
2023-04-15T12:17:50.798Z,984.32
2023-04-15T12:18:38.743Z,984.32
2023-04-15T12:19:40.439Z,984.34
2023-04-15T12:20:42.204Z,984.42
2023-04-15T12:21:43.956Z,984.43
2023-04-15T12:22:45.692Z,984.46
2023-04-15T12:23:47.426Z,984.44
2023-04-15T12:24:49.109Z,984.42
2023-04-15T12:25:50.887Z,984.41
2023-04-15T12:26:52.586Z,984.4
2023-04-15T12:27:54.347Z,984.45
2023-04-15T12:28:56.052Z,984.36
2023-04-15T12:29:57.776Z,984.52
2023-04-15T12:30:59.585Z,984.48
2023-04-15T12:32:01.271Z,984.51
2023-04-15T12:33:03.063Z,984.56
2023-04-15T12:34:05.101Z,984.52
2023-04-15T12:35:06.469Z,984.58
2023-04-15T12:36:08.193Z,984.6
2023-04-15T12:37:09.956Z,984.62
2023-04-15T12:38:11.653Z,984.58
2023-04-15T12:39:13.461Z,984.56
2023-04-15T12:40:15.132Z,984.58
2023-04-15T12:41:16.876Z,984.68
2023-04-15T12:42:18.838Z,984.62
2023-04-15T12:43:20.359Z,984.69
2023-04-15T12:44:22.070Z,984.67
2023-04-15T12:45:23.816Z,984.7
2023-04-15T12:46:25.616Z,984.73
2023-04-15T12:47:27.361Z,984.74
2023-04-15T12:48:29.031Z,984.73
2023-04-15T12:49:30.775Z,984.74
2023-04-15T12:50:32.505Z,984.83
2023-04-15T12:51:34.259Z,984.83
2023-04-15T12:52:35.940Z,984.81
2023-04-15T12:53:37.711Z,984.86
2023-04-15T12:54:39.419Z,984.85